Terminal Aerodrome Forecast
Issued by NWS

Home | Current Version | Previous Version | Text Only | Print | Product List | Glossary On
Versions: 1 2 3 4 5 6 7 8 9 10 11 12 13 14 15 16 17 18 19 20 21 22
744
FTUS43 KDTX 270535
TAFDET
TAF
KDET 270535Z 2706/2806 21012KT P6SM SCT090
     FM270900 20005KT P6SM SCT250
     FM271900 19007KT P6SM SCT045
     FM272200 14005KT P6SM BKN045=

USA.gov is the U.S. government's official web portal to all federal, state and local government web resources and services.